アルジェ の空港の天気 - METARとTAF

ウアリ・ブーメディアン空港 ( DAAG / ALG ) - アルジェリア アルジェ
飛行場実況気象(Metar)
観測時間04/25 08:30 CET (04/25 07:30 UTC)
風向・風速西 2m/s
視程10km以上
天気現象
なし
気温16℃
湿度82%
気圧1017hPa
METARDAAG 250730Z 28004KT 240V300 CAVOK 16/13 Q1017
過去の天気等 Google飛行場航空写真 Wunderground天気予報

過去48時間のMETAR

飛行場予報(TAF)
発表時間: 4/25 06:00 CET (4/25 05:00 UTC)
予報対象時間: 25日7時 CET ~ 26日7時 CET
風向・風速不定 1m/s
視程10km以上
なし
25日9時 CET ~ 25日12時 CET に徐々に
風向・風速北北東 5m/s
25日19時 CET ~ 25日22時 CET に徐々に
風向・風速不定 1m/s
TAF DAAG 250500Z 2506/2606 VRB02KT CAVOK
BECMG 2508/2511 02010KT
BECMG 2518/2521 VRB02KT